sensor_id;sensor_type;location;lat;lon;timestamp;pressure;altitude;pressure_sealevel;temperature;humidity
53546;BME280;39432;51.902;10.844;2023-03-03T00:01:56;100259.53;;;0.16;100.00
53546;BME280;39432;51.902;10.844;2023-03-03T00:04:28;100264.09;;;0.15;100.00
53546;BME280;39432;51.902;10.844;2023-03-03T00:06:57;100267.16;;;0.74;100.00
53546;BME280;39432;51.902;10.844;2023-03-03T00:09:27;100267.22;;;0.66;100.00
53546;BME280;39432;51.902;10.844;2023-03-03T00:11:58;100273.81;;;0.87;100.00
53546;BME280;39432;51.902;10.844;2023-03-03T00:14:30;100268.75;;;0.92;100.00
53546;BME280;39432;51.902;10.844;2023-03-03T00:17:19;100256.31;;;0.60;100.00
53546;BME280;39432;51.902;10.844;2023-03-03T00:19:52;100258.13;;;0.67;100.00
53546;BME280;39432;51.902;10.844;2023-03-03T00:22:27;100263.59;;;0.51;100.00
53546;BME280;39432;51.902;10.844;2023-03-03T00:25:00;100257.22;;;0.44;100.00
53546;BME280;39432;51.902;10.844;2023-03-03T00:27:49;100249.53;;;0.02;100.00
53546;BME280;39432;51.902;10.844;2023-03-03T00:30:22;100248.25;;;0.29;100.00
53546;BME280;39432;51.902;10.844;2023-03-03T00:32:53;100244.09;;;0.49;100.00
53546;BME280;39432;51.902;10.844;2023-03-03T00:35:27;100251.97;;;0.82;100.00
53546;BME280;39432;51.902;10.844;2023-03-03T00:38:09;100240.75;;;0.47;100.00
53546;BME280;39432;51.902;10.844;2023-03-03T00:40:40;100247.72;;;0.64;100.00
53546;BME280;39432;51.902;10.844;2023-03-03T00:43:17;100255.06;;;0.70;100.00
53546;BME280;39432;51.902;10.844;2023-03-03T00:45:48;100248.78;;;0.55;100.00
53546;BME280;39432;51.902;10.844;2023-03-03T00:48:22;100243.34;;;0.63;100.00
53546;BME280;39432;51.902;10.844;2023-03-03T00:50:56;100255.69;;;0.10;100.00
53546;BME280;39432;51.902;10.844;2023-03-03T00:53:28;100262.72;;;0.28;100.00
53546;BME280;39432;51.902;10.844;2023-03-03T00:55:58;100255.41;;;0.44;100.00
53546;BME280;39432;51.902;10.844;2023-03-03T00:58:28;100252.13;;;0.57;100.00
53546;BME280;39432;51.902;10.844;2023-03-03T01:00:58;100259.16;;;0.66;100.00
53546;BME280;39432;51.902;10.844;2023-03-03T01:03:38;100258.41;;;1.26;100.00
53546;BME280;39432;51.902;10.844;2023-03-03T01:06:11;100245.97;;;0.71;100.00
53546;BME280;39432;51.902;10.844;2023-03-03T01:08:41;100254.78;;;0.26;100.00
53546;BME280;39432;51.902;10.844;2023-03-03T01:11:13;100252.25;;;0.33;100.00
53546;BME280;39432;51.902;10.844;2023-03-03T01:13:45;100253.47;;;0.61;100.00
53546;BME280;39432;51.902;10.844;2023-03-03T01:16:16;100246.19;;;0.39;100.00
53546;BME280;39432;51.902;10.844;2023-03-03T01:18:46;100238.56;;;0.42;100.00
53546;BME280;39432;51.902;10.844;2023-03-03T01:21:19;100244.38;;;0.62;100.00
53546;BME280;39432;51.902;10.844;2023-03-03T01:23:48;100253.75;;;0.35;100.00
53546;BME280;39432;51.902;10.844;2023-03-03T01:26:18;100240.44;;;-0.06;100.00
53546;BME280;39432;51.902;10.844;2023-03-03T01:28:48;100259.34;;;0.25;100.00
53546;BME280;39432;51.902;10.844;2023-03-03T01:31:17;100250.31;;;0.10;100.00
53546;BME280;39432;51.902;10.844;2023-03-03T01:33:47;100254.78;;;0.26;100.00
53546;BME280;39432;51.902;10.844;2023-03-03T01:36:24;100261.56;;;0.14;100.00
53546;BME280;39432;51.902;10.844;2023-03-03T01:38:54;100275.63;;;-0.23;100.00
53546;BME280;39432;51.902;10.844;2023-03-03T01:41:26;100279.72;;;-0.44;100.00
53546;BME280;39432;51.902;10.844;2023-03-03T01:43:59;100284.72;;;-0.16;100.00
53546;BME280;39432;51.902;10.844;2023-03-03T01:46:35;100292.81;;;-0.49;100.00
53546;BME280;39432;51.902;10.844;2023-03-03T01:49:12;100278.69;;;-0.67;100.00
53546;BME280;39432;51.902;10.844;2023-03-03T01:51:49;100274.00;;;-0.33;100.00
53546;BME280;39432;51.902;10.844;2023-03-03T01:54:23;100270.91;;;-0.13;100.00
53546;BME280;39432;51.902;10.844;2023-03-03T01:56:56;100273.59;;;-0.05;100.00
53546;BME280;39432;51.902;10.844;2023-03-03T01:59:31;100278.16;;;0.34;100.00
53546;BME280;39432;51.902;10.844;2023-03-03T02:02:02;100285.84;;;0.06;100.00
53546;BME280;39432;51.902;10.844;2023-03-03T02:04:33;100271.78;;;0.26;100.00
53546;BME280;39432;51.902;10.844;2023-03-03T02:07:09;100271.63;;;-0.36;100.00
53546;BME280;39432;51.902;10.844;2023-03-03T02:09:45;100272.56;;;-0.04;100.00
53546;BME280;39432;51.902;10.844;2023-03-03T02:12:19;100263.25;;;0.15;100.00
53546;BME280;39432;51.902;10.844;2023-03-03T02:14:51;100259.22;;;0.11;100.00
53546;BME280;39432;51.902;10.844;2023-03-03T02:17:21;100258.47;;;-0.14;100.00
53546;BME280;39432;51.902;10.844;2023-03-03T02:19:54;100262.09;;;0.17;100.00
53546;BME280;39432;51.902;10.844;2023-03-03T02:22:37;100263.06;;;0.24;100.00
53546;BME280;39432;51.902;10.844;2023-03-03T02:25:13;100262.41;;;0.22;100.00
53546;BME280;39432;51.902;10.844;2023-03-03T02:27:48;100260.38;;;0.16;100.00
53546;BME280;39432;51.902;10.844;2023-03-03T02:30:22;100273.31;;;-0.51;100.00
53546;BME280;39432;51.902;10.844;2023-03-03T02:32:52;100272.47;;;-0.51;100.00
53546;BME280;39432;51.902;10.844;2023-03-03T02:35:27;100263.59;;;-0.44;100.00
53546;BME280;39432;51.902;10.844;2023-03-03T02:38:04;100261.56;;;-0.42;100.00
53546;BME280;39432;51.902;10.844;2023-03-03T02:40:39;100262.06;;;-0.46;100.00
53546;BME280;39432;51.902;10.844;2023-03-03T02:43:15;100263.84;;;-0.22;100.00
53546;BME280;39432;51.902;10.844;2023-03-03T02:45:46;100283.72;;;-0.32;100.00
53546;BME280;39432;51.902;10.844;2023-03-03T02:48:15;100270.63;;;-0.27;100.00
53546;BME280;39432;51.902;10.844;2023-03-03T02:50:45;100258.81;;;-0.17;100.00
53546;BME280;39432;51.902;10.844;2023-03-03T02:53:15;100259.53;;;-0.40;100.00
53546;BME280;39432;51.902;10.844;2023-03-03T02:55:44;100262.69;;;-0.28;100.00
53546;BME280;39432;51.902;10.844;2023-03-03T02:58:17;100260.06;;;-0.52;100.00
53546;BME280;39432;51.902;10.844;2023-03-03T03:00:47;100257.03;;;-0.58;100.00
53546;BME280;39432;51.902;10.844;2023-03-03T03:03:21;100254.78;;;-0.13;100.00
53546;BME280;39432;51.902;10.844;2023-03-03T03:05:51;100246.22;;;-0.25;100.00
53546;BME280;39432;51.902;10.844;2023-03-03T03:08:22;100259.72;;;0.14;100.00
53546;BME280;39432;51.902;10.844;2023-03-03T03:10:52;100256.53;;;0.19;100.00
53546;BME280;39432;51.902;10.844;2023-03-03T03:13:26;100256.41;;;0.04;100.00
53546;BME280;39432;51.902;10.844;2023-03-03T03:15:56;100250.38;;;0.02;100.00
53546;BME280;39432;51.902;10.844;2023-03-03T03:18:26;100251.75;;;-0.18;100.00
53546;BME280;39432;51.902;10.844;2023-03-03T03:20:56;100259.69;;;-0.25;100.00
53546;BME280;39432;51.902;10.844;2023-03-03T03:23:34;100258.53;;;-0.47;100.00
53546;BME280;39432;51.902;10.844;2023-03-03T03:26:05;100265.59;;;-0.46;100.00
53546;BME280;39432;51.902;10.844;2023-03-03T03:28:37;100276.97;;;-0.28;100.00
53546;BME280;39432;51.902;10.844;2023-03-03T03:31:08;100267.66;;;0.08;100.00
53546;BME280;39432;51.902;10.844;2023-03-03T03:33:38;100268.88;;;-0.03;100.00
53546;BME280;39432;51.902;10.844;2023-03-03T03:36:09;100267.09;;;-0.35;100.00
53546;BME280;39432;51.902;10.844;2023-03-03T03:38:40;100259.13;;;-0.04;100.00
53546;BME280;39432;51.902;10.844;2023-03-03T03:41:11;100257.81;;;0.31;100.00
53546;BME280;39432;51.902;10.844;2023-03-03T03:43:44;100256.44;;;-0.04;100.00
53546;BME280;39432;51.902;10.844;2023-03-03T03:46:15;100255.09;;;0.00;100.00
53546;BME280;39432;51.902;10.844;2023-03-03T03:48:45;100258.09;;;-0.03;100.00
53546;BME280;39432;51.902;10.844;2023-03-03T03:51:17;100264.63;;;0.50;100.00
53546;BME280;39432;51.902;10.844;2023-03-03T03:53:47;100261.81;;;-0.12;100.00
53546;BME280;39432;51.902;10.844;2023-03-03T03:56:17;100262.47;;;-0.02;100.00
53546;BME280;39432;51.902;10.844;2023-03-03T03:58:52;100265.56;;;-0.30;100.00
53546;BME280;39432;51.902;10.844;2023-03-03T04:01:22;100267.22;;;-0.29;100.00
53546;BME280;39432;51.902;10.844;2023-03-03T04:03:52;100257.97;;;-0.18;100.00
53546;BME280;39432;51.902;10.844;2023-03-03T04:06:23;100264.91;;;-0.56;100.00
53546;BME280;39432;51.902;10.844;2023-03-03T04:08:54;100262.38;;;-0.25;100.00
53546;BME280;39432;51.902;10.844;2023-03-03T04:11:25;100270.28;;;-0.40;100.00
53546;BME280;39432;51.902;10.844;2023-03-03T04:13:57;100270.56;;;-0.10;100.00
53546;BME280;39432;51.902;10.844;2023-03-03T04:16:27;100270.78;;;-0.36;100.00
53546;BME280;39432;51.902;10.844;2023-03-03T04:18:56;100259.84;;;-0.35;100.00
53546;BME280;39432;51.902;10.844;2023-03-03T04:21:26;100269.22;;;-0.14;100.00
53546;BME280;39432;51.902;10.844;2023-03-03T04:23:58;100272.84;;;0.09;100.00
53546;BME280;39432;51.902;10.844;2023-03-03T04:26:28;100277.81;;;-0.19;100.00
53546;BME280;39432;51.902;10.844;2023-03-03T04:29:04;100278.84;;;-0.36;100.00
53546;BME280;39432;51.902;10.844;2023-03-03T04:31:34;100284.41;;;-0.38;100.00
53546;BME280;39432;51.902;10.844;2023-03-03T04:34:06;100294.09;;;-0.12;100.00
53546;BME280;39432;51.902;10.844;2023-03-03T04:36:37;100286.50;;;-0.01;100.00
53546;BME280;39432;51.902;10.844;2023-03-03T04:39:06;100285.56;;;0.32;100.00
53546;BME280;39432;51.902;10.844;2023-03-03T04:41:36;100299.69;;;0.25;100.00
53546;BME280;39432;51.902;10.844;2023-03-03T04:44:08;100297.72;;;0.19;100.00
53546;BME280;39432;51.902;10.844;2023-03-03T04:46:38;100302.16;;;-0.04;100.00
53546;BME280;39432;51.902;10.844;2023-03-03T04:49:08;100307.38;;;-0.19;100.00
53546;BME280;39432;51.902;10.844;2023-03-03T04:51:39;100293.91;;;-0.03;100.00
53546;BME280;39432;51.902;10.844;2023-03-03T04:54:09;100286.88;;;-0.20;100.00
53546;BME280;39432;51.902;10.844;2023-03-03T04:56:39;100288.75;;;-0.45;100.00
53546;BME280;39432;51.902;10.844;2023-03-03T04:59:11;100297.63;;;-0.12;100.00
53546;BME280;39432;51.902;10.844;2023-03-03T05:01:41;100301.66;;;0.01;100.00
53546;BME280;39432;51.902;10.844;2023-03-03T05:04:13;100296.31;;;0.32;100.00
53546;BME280;39432;51.902;10.844;2023-03-03T05:06:42;100293.03;;;0.05;100.00
53546;BME280;39432;51.902;10.844;2023-03-03T05:09:12;100295.75;;;-0.11;100.00
53546;BME280;39432;51.902;10.844;2023-03-03T05:11:41;100285.72;;;-0.34;100.00
53546;BME280;39432;51.902;10.844;2023-03-03T05:14:14;100296.13;;;-0.22;100.00
53546;BME280;39432;51.902;10.844;2023-03-03T05:16:43;100299.50;;;-0.29;100.00
53546;BME280;39432;51.902;10.844;2023-03-03T05:19:13;100302.25;;;0.11;100.00
53546;BME280;39432;51.902;10.844;2023-03-03T05:21:42;100303.09;;;0.19;100.00
53546;BME280;39432;51.902;10.844;2023-03-03T05:24:12;100294.81;;;-0.43;100.00
53546;BME280;39432;51.902;10.844;2023-03-03T05:26:42;100300.97;;;-0.02;100.00
53546;BME280;39432;51.902;10.844;2023-03-03T05:29:14;100302.00;;;0.45;100.00
53546;BME280;39432;51.902;10.844;2023-03-03T05:31:44;100301.75;;;0.23;100.00
53546;BME280;39432;51.902;10.844;2023-03-03T05:34:14;100303.59;;;0.23;100.00
53546;BME280;39432;51.902;10.844;2023-03-03T05:36:44;100308.13;;;0.22;100.00
53546;BME280;39432;51.902;10.844;2023-03-03T05:39:13;100304.72;;;0.37;100.00
53546;BME280;39432;51.902;10.844;2023-03-03T05:41:43;100299.75;;;0.09;100.00
53546;BME280;39432;51.902;10.844;2023-03-03T05:44:15;100298.22;;;0.23;100.00
53546;BME280;39432;51.902;10.844;2023-03-03T05:46:46;100301.13;;;-0.11;100.00
53546;BME280;39432;51.902;10.844;2023-03-03T05:49:16;100303.22;;;0.26;100.00
53546;BME280;39432;51.902;10.844;2023-03-03T05:51:45;100288.28;;;0.15;100.00
53546;BME280;39432;51.902;10.844;2023-03-03T05:54:15;100291.88;;;0.55;100.00
53546;BME280;39432;51.902;10.844;2023-03-03T05:56:44;100290.09;;;0.31;100.00
53546;BME280;39432;51.902;10.844;2023-03-03T05:59:17;100279.97;;;0.41;100.00
53546;BME280;39432;51.902;10.844;2023-03-03T06:01:47;100271.56;;;0.36;100.00
53546;BME280;39432;51.902;10.844;2023-03-03T06:04:16;100272.00;;;0.17;100.00
53546;BME280;39432;51.902;10.844;2023-03-03T06:06:46;100262.88;;;-0.30;100.00
53546;BME280;39432;51.902;10.844;2023-03-03T06:09:15;100266.50;;;0.02;100.00
53546;BME280;39432;51.902;10.844;2023-03-03T06:11:46;100269.88;;;-0.04;100.00
53546;BME280;39432;51.902;10.844;2023-03-03T06:14:21;100274.19;;;0.05;100.00
53546;BME280;39432;51.902;10.844;2023-03-03T06:16:53;100277.13;;;-0.13;100.00
53546;BME280;39432;51.902;10.844;2023-03-03T06:19:23;100270.84;;;0.03;100.00
53546;BME280;39432;51.902;10.844;2023-03-03T06:21:53;100283.25;;;0.20;100.00
53546;BME280;39432;51.902;10.844;2023-03-03T06:24:26;100297.19;;;0.16;100.00
53546;BME280;39432;51.902;10.844;2023-03-03T06:26:57;100307.31;;;0.53;100.00
53546;BME280;39432;51.902;10.844;2023-03-03T06:29:29;100310.72;;;0.47;100.00
53546;BME280;39432;51.902;10.844;2023-03-03T06:31:58;100322.25;;;0.24;100.00
53546;BME280;39432;51.902;10.844;2023-03-03T06:34:28;100330.50;;;0.15;100.00
53546;BME280;39432;51.902;10.844;2023-03-03T06:36:58;100335.69;;;0.16;100.00
53546;BME280;39432;51.902;10.844;2023-03-03T06:39:28;100337.84;;;0.37;100.00
53546;BME280;39432;51.902;10.844;2023-03-03T06:41:57;100328.94;;;0.37;100.00
53546;BME280;39432;51.902;10.844;2023-03-03T06:44:29;100331.47;;;0.30;100.00
53546;BME280;39432;51.902;10.844;2023-03-03T06:46:59;100333.00;;;0.24;100.00
53546;BME280;39432;51.902;10.844;2023-03-03T06:49:29;100338.22;;;0.65;100.00
53546;BME280;39432;51.902;10.844;2023-03-03T06:52:00;100332.72;;;0.11;100.00
53546;BME280;39432;51.902;10.844;2023-03-03T06:54:33;100331.75;;;0.43;100.00
53546;BME280;39432;51.902;10.844;2023-03-03T06:57:14;100330.91;;;0.43;100.00
53546;BME280;39432;51.902;10.844;2023-03-03T06:59:51;100327.56;;;0.41;100.00
53546;BME280;39432;51.902;10.844;2023-03-03T07:02:21;100336.63;;;0.48;100.00
53546;BME280;39432;51.902;10.844;2023-03-03T07:04:52;100333.22;;;0.62;100.00
53546;BME280;39432;51.902;10.844;2023-03-03T07:07:25;100330.91;;;0.43;100.00
53546;BME280;39432;51.902;10.844;2023-03-03T07:09:55;100330.00;;;0.59;100.00
53546;BME280;39432;51.902;10.844;2023-03-03T07:12:28;100336.91;;;0.61;100.00
53546;BME280;39432;51.902;10.844;2023-03-03T07:15:12;100343.34;;;0.44;100.00
53546;BME280;39432;51.902;10.844;2023-03-03T07:17:44;100344.47;;;0.10;100.00
53546;BME280;39432;51.902;10.844;2023-03-03T07:20:19;100334.94;;;0.47;100.00
53546;BME280;39432;51.902;10.844;2023-03-03T07:22:50;100347.00;;;0.59;100.00
53546;BME280;39432;51.902;10.844;2023-03-03T07:25:25;100343.66;;;0.57;100.00
53546;BME280;39432;51.902;10.844;2023-03-03T07:27:59;100354.19;;;0.28;100.00
53546;BME280;39432;51.902;10.844;2023-03-03T07:30:42;100346.81;;;0.13;100.00
53546;BME280;39432;51.902;10.844;2023-03-03T07:33:19;100349.38;;;0.54;100.00
53546;BME280;39432;51.902;10.844;2023-03-03T07:35:53;100356.41;;;0.63;100.00
53546;BME280;39432;51.902;10.844;2023-03-03T07:38:28;100358.06;;;1.03;100.00
53546;BME280;39432;51.902;10.844;2023-03-03T07:41:00;100365.84;;;0.67;100.00
53546;BME280;39432;51.902;10.844;2023-03-03T07:43:34;100365.50;;;0.62;100.00
53546;BME280;39432;51.902;10.844;2023-03-03T07:46:22;100363.50;;;0.95;100.00
53546;BME280;39432;51.902;10.844;2023-03-03T07:48:55;100371.50;;;0.81;100.00
53546;BME280;39432;51.902;10.844;2023-03-03T07:51:26;100368.31;;;1.08;100.00
53546;BME280;39432;51.902;10.844;2023-03-03T07:54:16;100365.13;;;0.73;100.00
53546;BME280;39432;51.902;10.844;2023-03-03T07:56:46;100360.00;;;0.47;100.00
53546;BME280;39432;51.902;10.844;2023-03-03T07:59:20;100362.53;;;0.49;100.00
53546;BME280;39432;51.902;10.844;2023-03-03T08:01:54;100365.13;;;0.73;100.00
53546;BME280;39432;51.902;10.844;2023-03-03T08:04:28;100370.38;;;0.98;100.00
53546;BME280;39432;51.902;10.844;2023-03-03T08:07:11;100365.59;;;1.16;100.00
53546;BME280;39432;51.902;10.844;2023-03-03T08:13:04;100357.28;;;0.95;100.00
53546;BME280;39432;51.902;10.844;2023-03-03T08:15:37;100368.69;;;1.05;100.00
53546;BME280;39432;51.902;10.844;2023-03-03T08:18:17;100368.84;;;1.35;100.00
53546;BME280;39432;51.902;10.844;2023-03-03T08:20:49;100367.72;;;1.21;100.00
53546;BME280;39432;51.902;10.844;2023-03-03T08:23:20;100364.22;;;0.89;100.00
53546;BME280;39432;51.902;10.844;2023-03-03T08:25:53;100366.63;;;1.38;100.00
53546;BME280;39432;51.902;10.844;2023-03-03T08:28:22;100362.41;;;1.36;100.00
53546;BME280;39432;51.902;10.844;2023-03-03T08:30:52;100367.78;;;0.82;100.00
53546;BME280;39432;51.902;10.844;2023-03-03T08:33:45;100380.44;;;1.12;100.00
53546;BME280;39432;51.902;10.844;2023-03-03T08:36:14;100380.25;;;0.83;100.00
53546;BME280;39432;51.902;10.844;2023-03-03T08:38:44;100380.06;;;1.15;100.00
53546;BME280;39432;51.902;10.844;2023-03-03T08:41:14;100386.84;;;1.11;100.00
53546;BME280;39432;51.902;10.844;2023-03-03T08:43:43;100383.25;;;1.42;100.00
53546;BME280;39432;51.902;10.844;2023-03-03T08:46:13;100384.66;;;1.38;100.00
53546;BME280;39432;51.902;10.844;2023-03-03T08:48:46;100386.88;;;1.34;100.00
53546;BME280;39432;51.902;10.844;2023-03-03T08:51:15;100390.31;;;1.43;100.00
53546;BME280;39432;51.902;10.844;2023-03-03T08:53:45;100396.75;;;1.88;100.00
53546;BME280;39432;51.902;10.844;2023-03-03T08:56:15;100389.88;;;1.39;100.00
53546;BME280;39432;51.902;10.844;2023-03-03T08:58:44;100391.72;;;1.39;100.00
53546;BME280;39432;51.902;10.844;2023-03-03T09:01:30;100400.72;;;1.00;100.00
53546;BME280;39432;51.902;10.844;2023-03-03T09:04:02;100406.66;;;1.18;100.00
53546;BME280;39432;51.902;10.844;2023-03-03T09:06:32;100408.09;;;1.06;100.00
53546;BME280;39432;51.902;10.844;2023-03-03T09:09:02;100398.28;;;1.13;100.00
53546;BME280;39432;51.902;10.844;2023-03-03T09:11:32;100405.75;;;1.26;100.00
53546;BME280;39432;51.902;10.844;2023-03-03T09:14:06;100401.47;;;1.17;100.00
53546;BME280;39432;51.902;10.844;2023-03-03T09:16:41;100400.47;;;1.41;100.00
53546;BME280;39432;51.902;10.844;2023-03-03T09:19:21;100399.28;;;1.66;100.00
53546;BME280;39432;51.902;10.844;2023-03-03T09:21:53;100394.13;;;1.34;100.00
53546;BME280;39432;51.902;10.844;2023-03-03T09:24:25;100395.06;;;1.41;100.00
53546;BME280;39432;51.902;10.844;2023-03-03T09:26:56;100385.31;;;1.40;100.00
53546;BME280;39432;51.902;10.844;2023-03-03T09:29:27;100389.31;;;0.82;100.00
53546;BME280;39432;51.902;10.844;2023-03-03T09:31:59;100392.94;;;1.05;100.00
53546;BME280;39432;51.902;10.844;2023-03-03T09:34:37;100397.44;;;1.13;100.00
53546;BME280;39432;51.902;10.844;2023-03-03T09:37:19;100398.47;;;1.03;100.00
53546;BME280;39432;51.902;10.844;2023-03-03T09:39:51;100395.69;;;1.51;100.00
53546;BME280;39432;51.902;10.844;2023-03-03T09:42:36;100393.88;;;1.66;100.00
53546;BME280;39432;51.902;10.844;2023-03-03T09:45:25;100406.97;;;1.54;100.00
53546;BME280;39432;51.902;10.844;2023-03-03T09:48:18;100388.31;;;1.45;100.00
53546;BME280;39432;51.902;10.844;2023-03-03T09:51:01;100395.56;;;1.67;100.00
53546;BME280;39432;51.902;10.844;2023-03-03T09:53:43;100391.72;;;1.39;100.00
53546;BME280;39432;51.902;10.844;2023-03-03T09:56:24;100387.41;;;1.52;100.00
53546;BME280;39432;51.902;10.844;2023-03-03T09:59:05;100384.03;;;1.73;100.00
53546;BME280;39432;51.902;10.844;2023-03-03T10:01:54;100384.34;;;1.78;100.00
53546;BME280;39432;51.902;10.844;2023-03-03T10:04:46;100387.69;;;1.80;100.00
53546;BME280;39432;51.902;10.844;2023-03-03T10:07:30;100388.72;;;1.79;100.00
53546;BME280;39432;51.902;10.844;2023-03-03T10:10:15;100385.50;;;1.61;100.00
53546;BME280;39432;51.902;10.844;2023-03-03T10:12:58;100393.09;;;1.35;100.00
53546;BME280;39432;51.902;10.844;2023-03-03T10:15:38;100396.41;;;1.45;100.00
53546;BME280;39432;51.902;10.844;2023-03-03T10:18:18;100391.31;;;1.73;100.00
53546;BME280;39432;51.902;10.844;2023-03-03T10:21:02;100395.78;;;1.57;100.00
53546;BME280;39432;51.902;10.844;2023-03-03T10:23:54;100390.97;;;1.91;100.00
53546;BME280;39432;51.902;10.844;2023-03-03T10:26:44;100401.13;;;2.26;100.00
53546;BME280;39432;51.902;10.844;2023-03-03T10:29:43;100392.28;;;2.32;100.00
53546;BME280;39432;51.902;10.844;2023-03-03T10:32:29;100396.72;;;2.10;100.00
53546;BME280;39432;51.902;10.844;2023-03-03T10:35:10;100396.66;;;2.33;100.00
53546;BME280;39432;51.902;10.844;2023-03-03T10:37:52;100395.34;;;2.29;100.00
53546;BME280;39432;51.902;10.844;2023-03-03T10:40:33;100395.03;;;2.24;100.00
53546;BME280;39432;51.902;10.844;2023-03-03T10:43:29;100391.13;;;2.12;100.00
53546;BME280;39432;51.902;10.844;2023-03-03T10:46:14;100392.34;;;2.09;100.00
53546;BME280;39432;51.902;10.844;2023-03-03T10:49:07;100391.81;;;2.44;100.00
53546;BME280;39432;51.902;10.844;2023-03-03T10:51:52;100392.56;;;2.67;100.00
53546;BME280;39432;51.902;10.844;2023-03-03T10:54:33;100389.31;;;2.57;100.00
53546;BME280;39432;51.902;10.844;2023-03-03T10:57:14;100378.31;;;2.73;100.00
53546;BME280;39432;51.902;10.844;2023-03-03T10:59:59;100374.41;;;2.46;100.00
53546;BME280;39432;51.902;10.844;2023-03-03T11:02:37;100372.91;;;2.73;100.00
53546;BME280;39432;51.902;10.844;2023-03-03T11:05:28;100370.88;;;2.60;100.00
53546;BME280;39432;51.902;10.844;2023-03-03T11:08:04;100374.13;;;2.56;100.00
53546;BME280;39432;51.902;10.844;2023-03-03T11:10:47;100374.59;;;2.45;100.00
53546;BME280;39432;51.902;10.844;2023-03-03T11:13:27;100366.50;;;2.59;100.00
53546;BME280;39432;51.902;10.844;2023-03-03T11:16:19;100373.75;;;2.29;100.00
53546;BME280;39432;51.902;10.844;2023-03-03T11:19:10;100365.75;;;2.21;100.00
53546;BME280;39432;51.902;10.844;2023-03-03T11:21:45;100370.69;;;2.32;100.00
53546;BME280;39432;51.902;10.844;2023-03-03T11:24:26;100370.13;;;2.37;100.00
53546;BME280;39432;51.902;10.844;2023-03-03T11:27:07;100363.97;;;2.58;100.00
53546;BME280;39432;51.902;10.844;2023-03-03T11:29:52;100360.25;;;2.59;100.00
53546;BME280;39432;51.902;10.844;2023-03-03T11:32:31;100361.84;;;2.38;100.00
53546;BME280;39432;51.902;10.844;2023-03-03T11:35:19;100363.50;;;2.54;100.00
53546;BME280;39432;51.902;10.844;2023-03-03T11:37:58;100364.25;;;2.48;100.00
53546;BME280;39432;51.902;10.844;2023-03-03T11:40:41;100352.25;;;2.51;100.00
53546;BME280;39432;51.902;10.844;2023-03-03T11:43:17;100355.78;;;2.81;100.00
53546;BME280;39432;51.902;10.844;2023-03-03T11:46:08;100366.56;;;2.81;100.00
53546;BME280;39432;51.902;10.844;2023-03-03T11:48:45;100355.66;;;2.74;100.00
53546;BME280;39432;51.902;10.844;2023-03-03T11:51:24;100356.00;;;3.01;100.00
53546;BME280;39432;51.902;10.844;2023-03-03T11:54:00;100351.59;;;3.14;100.00
53546;BME280;39432;51.902;10.844;2023-03-03T11:56:37;100351.41;;;3.01;100.00
53546;BME280;39432;51.902;10.844;2023-03-03T12:02:33;100344.28;;;2.94;100.00
53546;BME280;39432;51.902;10.844;2023-03-03T12:05:14;100347.22;;;2.33;100.00
53546;BME280;39432;51.902;10.844;2023-03-03T12:07:58;100342.47;;;2.64;100.00
53546;BME280;39432;51.902;10.844;2023-03-03T12:10:36;100338.81;;;2.87;100.00
53546;BME280;39432;51.902;10.844;2023-03-03T12:13:16;100335.84;;;2.67;100.00
53546;BME280;39432;51.902;10.844;2023-03-03T12:15:54;100327.28;;;3.00;100.00
53546;BME280;39432;51.902;10.844;2023-03-03T12:18:46;100330.13;;;2.92;100.00
53546;BME280;39432;51.902;10.844;2023-03-03T12:21:32;100335.19;;;3.16;100.00
53546;BME280;39432;51.902;10.844;2023-03-03T12:24:22;100333.84;;;2.90;100.00
53546;BME280;39432;51.902;10.844;2023-03-03T12:27:05;100328.59;;;2.53;100.00
53546;BME280;39432;51.902;10.844;2023-03-03T12:29:41;100330.13;;;2.92;100.00
53546;BME280;39432;51.902;10.844;2023-03-03T12:32:27;100326.63;;;2.61;100.00
53546;BME280;39432;51.902;10.844;2023-03-03T12:35:05;100325.94;;;2.74;100.00
53546;BME280;39432;51.902;10.844;2023-03-03T12:37:50;100324.69;;;2.41;100.00
53546;BME280;39432;51.902;10.844;2023-03-03T12:40:24;100321.22;;;2.47;100.00
53546;BME280;39432;51.902;10.844;2023-03-03T12:43:03;100319.22;;;3.21;100.00
53546;BME280;39432;51.902;10.844;2023-03-03T12:45:43;100317.06;;;2.95;100.00
53546;BME280;39432;51.902;10.844;2023-03-03T12:48:18;100312.41;;;3.25;100.00
53546;BME280;39432;51.902;10.844;2023-03-03T12:51:01;100307.34;;;3.01;100.00
53546;BME280;39432;51.902;10.844;2023-03-03T12:54:06;100302.25;;;2.91;100.00
53546;BME280;39432;51.902;10.844;2023-03-03T12:56:44;100309.09;;;2.72;100.00
53546;BME280;39432;51.902;10.844;2023-03-03T12:59:16;100304.59;;;2.79;100.00
53546;BME280;39432;51.902;10.844;2023-03-03T13:02:02;100303.31;;;3.11;100.00
53546;BME280;39432;51.902;10.844;2023-03-03T13:04:41;100308.72;;;2.75;100.00
53546;BME280;39432;51.902;10.844;2023-03-03T13:07:16;100305.81;;;3.13;100.00
53546;BME280;39432;51.902;10.844;2023-03-03T13:10:02;100302.84;;;2.72;100.00
53546;BME280;39432;51.902;10.844;2023-03-03T13:12:42;100298.78;;;3.40;100.00
53546;BME280;39432;51.902;10.844;2023-03-03T13:15:16;100301.84;;;3.09;100.00
53546;BME280;39432;51.902;10.844;2023-03-03T13:18:18;100286.78;;;3.21;100.00
53546;BME280;39432;51.902;10.844;2023-03-03T13:20:58;100288.88;;;3.04;100.00
53546;BME280;39432;51.902;10.844;2023-03-03T13:23:42;100293.59;;;3.17;100.00
53546;BME280;39432;51.902;10.844;2023-03-03T13:26:19;100292.19;;;2.85;100.00